Time;durP1;ratioP1;P1;durP2;ratioP2;P2;SDS_P1;SDS_P2;PMS_P1;PMS_P2;Temp;Humidity;BMP_temperature;BMP_pressure;BME280_temperature;BME280_humidity;BME280_pressure;Samples;Min_cycle;Max_cycle;Signal;HPM_P1;HPM_P2
2021/06/24 00:01:40;;;;;;;1.40;1.17;;;22.80;62.00;;;;;;4977474;28;20026;-35
2021/06/24 00:04:06;;;;;;;1.73;0.90;;;22.80;61.20;;;;;;4985137;28;20045;-35
2021/06/24 00:06:31;;;;;;;2.30;0.80;;;22.90;60.50;;;;;;4997360;28;20023;-35
2021/06/24 00:08:57;;;;;;;0.73;0.68;;;22.90;60.20;;;;;;4978241;28;20042;-35
2021/06/24 00:11:23;;;;;;;1.27;1.15;;;22.90;60.20;;;;;;4972572;28;20029;-35
2021/06/24 00:13:48;;;;;;;0.80;0.80;;;22.90;59.60;;;;;;4977573;28;20105;-35
2021/06/24 00:16:14;;;;;;;1.92;1.00;;;22.90;59.80;;;;;;4985516;28;20050;-35
2021/06/24 00:18:39;;;;;;;1.27;1.10;;;22.90;59.60;;;;;;4981215;28;20027;-34
2021/06/24 00:21:05;;;;;;;1.30;0.90;;;23.00;59.40;;;;;;4976286;28;20049;-35
2021/06/24 00:23:31;;;;;;;1.17;0.82;;;23.00;59.50;;;;;;4972989;28;20046;-35
2021/06/24 00:25:57;;;;;;;1.55;1.00;;;23.10;59.30;;;;;;4987561;28;20102;-35
2021/06/24 00:28:26;;;;;;;1.10;0.95;;;23.20;59.30;;;;;;4977941;28;20031;-35
2021/06/24 00:30:54;;;;;;;1.10;1.02;;;23.10;59.30;;;;;;4983992;28;20038;-36
2021/06/24 00:33:20;;;;;;;1.15;0.90;;;23.00;59.10;;;;;;4983845;28;20034;-35
2021/06/24 00:35:46;;;;;;;1.00;0.70;;;23.00;59.10;;;;;;4978361;28;20057;-34
2021/06/24 00:38:12;;;;;;;1.63;0.93;;;23.00;59.30;;;;;;4973616;28;20110;-35
2021/06/24 00:40:39;;;;;;;1.50;1.00;;;22.90;59.40;;;;;;4976897;28;20370;-35
2021/06/24 00:43:08;;;;;;;1.15;0.90;;;22.90;59.50;;;;;;4971505;28;20046;-34
2021/06/24 00:45:34;;;;;;;1.30;0.80;;;22.90;59.10;;;;;;4987154;28;20030;-35
2021/06/24 00:48:00;;;;;;;0.70;0.68;;;22.90;59.10;;;;;;4986294;28;20068;-35
2021/06/24 00:50:26;;;;;;;1.17;0.75;;;22.90;59.20;;;;;;4972441;28;20420;-34
2021/06/24 00:52:52;;;;;;;2.15;1.00;;;22.90;59.20;;;;;;4976745;28;20053;-34
2021/06/24 00:55:17;;;;;;;1.30;0.90;;;23.00;59.40;;;;;;4977238;28;20034;-34
2021/06/24 00:57:43;;;;;;;1.75;0.82;;;23.00;59.20;;;;;;4976518;28;20023;-35
2021/06/24 01:00:10;;;;;;;0.90;0.90;;;22.90;59.10;;;;;;4976657;28;20390;-35
2021/06/24 01:02:36;;;;;;;1.50;0.85;;;22.90;59.40;;;;;;4987595;28;20047;-35
2021/06/24 01:05:02;;;;;;;2.67;0.80;;;22.90;59.10;;;;;;4989223;28;20034;-34
2021/06/24 01:07:28;;;;;;;1.58;1.15;;;22.80;58.90;;;;;;4977062;28;20022;-34
2021/06/24 01:09:53;;;;;;;1.08;0.80;;;22.90;59.10;;;;;;4979596;28;20027;-35
2021/06/24 01:12:19;;;;;;;1.52;0.68;;;22.80;59.10;;;;;;4979950;28;20042;-34
2021/06/24 01:14:45;;;;;;;1.42;0.88;;;22.80;59.90;;;;;;4978372;28;20521;-36
2021/06/24 01:17:10;;;;;;;3.65;1.02;;;22.90;59.10;;;;;;4990728;28;20049;-34
2021/06/24 01:19:36;;;;;;;0.50;0.50;;;22.90;58.70;;;;;;4982112;28;20089;-35
2021/06/24 01:22:02;;;;;;;0.98;0.70;;;22.80;58.80;;;;;;4987469;28;20026;-34
2021/06/24 01:24:28;;;;;;;1.58;0.90;;;22.70;58.80;;;;;;4988097;28;20039;-34
2021/06/24 01:26:54;;;;;;;0.90;0.60;;;22.60;59.20;;;;;;4973173;28;20119;-35
2021/06/24 01:29:19;;;;;;;1.10;0.82;;;22.70;59.20;;;;;;4974303;28;20465;-35
2021/06/24 01:31:45;;;;;;;0.73;0.60;;;22.80;59.00;;;;;;4980224;28;20073;-34
2021/06/24 01:34:11;;;;;;;0.70;0.70;;;22.80;58.80;;;;;;4979363;28;20102;-35
2021/06/24 01:36:37;;;;;;;2.75;0.80;;;22.80;59.00;;;;;;4979481;28;20023;-34
2021/06/24 01:39:04;;;;;;;0.77;0.70;;;22.80;58.80;;;;;;4981154;28;20038;-35
2021/06/24 01:41:30;;;;;;;0.82;0.80;;;22.90;58.90;;;;;;4975782;28;20489;-35
2021/06/24 01:43:56;;;;;;;2.10;0.88;;;22.90;58.90;;;;;;4977468;28;20054;-35
2021/06/24 01:46:21;;;;;;;1.17;0.85;;;22.90;58.70;;;;;;4991877;28;20026;-34
2021/06/24 01:48:47;;;;;;;0.80;0.80;;;23.00;58.70;;;;;;4983053;28;20052;-35
2021/06/24 01:51:13;;;;;;;2.10;0.93;;;22.90;58.80;;;;;;4978680;28;20084;-35
2021/06/24 01:53:38;;;;;;;0.85;0.80;;;22.90;58.70;;;;;;4992265;28;20023;-35
2021/06/24 01:56:04;;;;;;;1.10;0.90;;;23.00;58.60;;;;;;4976366;28;20042;-35
2021/06/24 01:58:30;;;;;;;1.20;0.55;;;23.00;58.60;;;;;;4981577;28;20526;-34
2021/06/24 02:00:57;;;;;;;2.15;0.65;;;22.90;58.50;;;;;;4979099;28;20048;-35
2021/06/24 02:03:22;;;;;;;1.77;0.80;;;22.90;58.50;;;;;;4980370;28;20042;-34
2021/06/24 02:05:50;;;;;;;0.65;0.65;;;22.90;58.60;;;;;;4978404;28;20030;-34
2021/06/24 02:08:23;;;;;;;0.60;0.60;;;22.90;58.60;;;;;;4975352;28;20482;-34
2021/06/24 02:10:49;;;;;;;0.90;0.77;;;22.90;58.30;;;;;;4990622;28;20039;-34
2021/06/24 02:13:15;;;;;;;1.15;0.80;;;22.90;58.60;;;;;;4979403;28;20513;-35
2021/06/24 02:15:41;;;;;;;1.27;0.80;;;22.90;58.40;;;;;;4979867;28;20058;-36
2021/06/24 02:18:07;;;;;;;0.95;0.80;;;22.90;58.40;;;;;;4978840;28;20039;-35
2021/06/24 02:20:33;;;;;;;0.63;0.63;;;22.90;58.40;;;;;;4975059;28;20027;-35
2021/06/24 02:22:59;;;;;;;1.45;0.60;;;22.90;58.20;;;;;;4991672;28;20089;-35
2021/06/24 02:25:26;;;;;;;1.92;0.60;;;22.90;58.20;;;;;;5005848;28;20121;-35
2021/06/24 02:27:51;;;;;;;0.73;0.68;;;22.90;58.40;;;;;;4981509;28;20046;-35
2021/06/24 02:30:17;;;;;;;1.60;0.75;;;22.90;59.10;;;;;;4980001;28;20077;-42
2021/06/24 02:32:43;;;;;;;0.90;0.70;;;22.90;58.50;;;;;;4976668;28;20023;-36
2021/06/24 02:35:11;;;;;;;1.10;0.90;;;22.90;58.20;;;;;;4975930;28;20070;-34
2021/06/24 02:37:37;;;;;;;0.60;0.50;;;22.90;58.40;;;;;;4979089;28;20034;-35
2021/06/24 02:40:03;;;;;;;0.90;0.60;;;22.80;58.30;;;;;;4978277;28;20031;-35
2021/06/24 02:42:29;;;;;;;0.63;0.63;;;22.80;58.20;;;;;;4977889;28;20062;-37
2021/06/24 02:44:55;;;;;;;0.50;0.50;;;22.80;58.40;;;;;;4977377;28;20068;-35
2021/06/24 02:47:20;;;;;;;1.13;0.63;;;22.80;58.40;;;;;;4972586;28;20026;-35
2021/06/24 02:49:46;;;;;;;1.77;0.70;;;22.80;58.40;;;;;;4978812;28;20121;-35
2021/06/24 02:52:12;;;;;;;0.88;0.68;;;22.70;58.30;;;;;;4977873;28;20077;-35
2021/06/24 02:54:37;;;;;;;0.90;0.65;;;22.70;58.30;;;;;;4979414;28;20026;-34
2021/06/24 02:57:03;;;;;;;1.08;0.90;;;22.70;58.30;;;;;;4977643;28;20026;-35
2021/06/24 02:59:29;;;;;;;0.60;0.57;;;22.70;58.40;;;;;;4973756;28;20092;-35
2021/06/24 03:01:54;;;;;;;0.80;0.70;;;22.80;58.30;;;;;;4976832;28;20113;-33
2021/06/24 03:04:23;;;;;;;0.80;0.60;;;22.70;58.20;;;;;;4980706;28;20030;-33
2021/06/24 03:06:52;;;;;;;0.50;0.50;;;22.70;58.50;;;;;;4978092;28;20023;-34
2021/06/24 03:09:18;;;;;;;0.88;0.70;;;22.70;59.10;;;;;;4977293;28;20027;-35
2021/06/24 03:11:43;;;;;;;1.10;0.57;;;22.70;58.40;;;;;;4977786;28;20041;-35
2021/06/24 03:14:09;;;;;;;0.52;0.52;;;22.70;58.20;;;;;;4974304;28;20027;-35
2021/06/24 03:16:35;;;;;;;0.63;0.63;;;22.70;58.30;;;;;;4978505;28;20035;-35
2021/06/24 03:19:00;;;;;;;0.80;0.70;;;22.70;58.40;;;;;;4979458;28;20046;-35
2021/06/24 03:21:26;;;;;;;0.73;0.73;;;22.60;58.60;;;;;;4977115;28;20485;-35
2021/06/24 03:23:51;;;;;;;0.75;0.52;;;22.70;58.40;;;;;;4976914;28;20045;-35
2021/06/24 03:26:17;;;;;;;1.30;0.55;;;22.70;58.30;;;;;;4987517;28;20037;-35
2021/06/24 03:28:43;;;;;;;0.82;0.70;;;22.80;58.20;;;;;;4977821;28;20066;-35
2021/06/24 03:31:08;;;;;;;1.13;0.60;;;22.70;58.10;;;;;;4978983;28;20544;-34
2021/06/24 03:33:34;;;;;;;0.77;0.50;;;22.70;58.10;;;;;;4977444;28;20026;-35
2021/06/24 03:36:00;;;;;;;1.00;0.80;;;22.70;58.20;;;;;;4977138;28;20401;-34
2021/06/24 03:38:25;;;;;;;0.52;0.50;;;22.70;58.10;;;;;;4974736;28;20026;-35
2021/06/24 03:40:51;;;;;;;1.10;0.50;;;22.70;58.20;;;;;;4977639;28;20548;-35
2021/06/24 03:43:16;;;;;;;1.10;0.70;;;22.70;58.20;;;;;;4976738;28;20074;-41
2021/06/24 03:45:42;;;;;;;0.50;0.50;;;22.70;58.30;;;;;;4984863;28;20050;-35
2021/06/24 03:48:08;;;;;;;0.70;0.50;;;22.60;58.10;;;;;;4986359;28;20069;-34
2021/06/24 03:50:34;;;;;;;0.55;0.50;;;22.60;58.20;;;;;;4973932;28;20047;-36
2021/06/24 03:53:00;;;;;;;0.57;0.40;;;22.60;58.50;;;;;;4990527;28;20033;-35
2021/06/24 03:55:36;;;;;;;0.82;0.70;;;22.60;58.40;;;;;;4993960;28;20030;-34
2021/06/24 03:58:05;;;;;;;0.57;0.50;;;22.60;58.40;;;;;;4979293;28;20035;-35
2021/06/24 04:00:31;;;;;;;1.15;0.70;;;22.60;58.30;;;;;;4976560;28;20090;-35
2021/06/24 04:02:57;;;;;;;0.80;0.60;;;22.60;58.10;;;;;;4979019;28;20052;-34
2021/06/24 04:05:22;;;;;;;0.60;0.60;;;22.60;58.20;;;;;;4987084;28;20018;-35
2021/06/24 04:07:48;;;;;;;0.60;0.60;;;22.70;58.20;;;;;;4991099;28;20087;-34
2021/06/24 04:10:14;;;;;;;0.70;0.52;;;22.60;58.10;;;;;;4993698;28;20058;-35
2021/06/24 04:12:39;;;;;;;0.57;0.50;;;22.60;58.10;;;;;;4976377;28;20023;-34
2021/06/24 04:15:06;;;;;;;0.90;0.68;;;22.60;58.10;;;;;;4976194;28;20496;-33
2021/06/24 04:17:31;;;;;;;0.85;0.40;;;22.60;58.10;;;;;;4974918;28;20018;-34
2021/06/24 04:19:57;;;;;;;0.50;0.50;;;22.60;58.80;;;;;;4975554;28;20039;-34
2021/06/24 04:22:23;;;;;;;0.63;0.50;;;22.60;58.80;;;;;;4990022;28;20026;-34
2021/06/24 04:24:49;;;;;;;0.82;0.43;;;22.60;58.10;;;;;;4982097;28;20030;-38
2021/06/24 04:27:14;;;;;;;1.08;0.63;;;22.60;58.10;;;;;;4987599;28;20113;-37
2021/06/24 04:29:40;;;;;;;0.80;0.60;;;22.50;58.40;;;;;;4987087;28;20030;-38
2021/06/24 04:32:06;;;;;;;0.55;0.55;;;22.50;58.40;;;;;;4989133;28;20156;-38
2021/06/24 04:34:32;;;;;;;0.57;0.50;;;22.50;58.50;;;;;;5006591;28;20114;-38
2021/06/24 04:36:58;;;;;;;0.45;0.40;;;22.50;58.40;;;;;;4987492;28;20105;-40
2021/06/24 04:39:23;;;;;;;0.60;0.57;;;22.30;58.50;;;;;;4992500;28;20033;-37
2021/06/24 04:41:49;;;;;;;0.75;0.68;;;22.30;59.40;;;;;;4988212;28;20026;-37
2021/06/24 04:44:15;;;;;;;0.60;0.43;;;22.20;59.10;;;;;;4977683;28;20039;-38
2021/06/24 04:46:41;;;;;;;1.00;0.60;;;22.20;58.90;;;;;;4995055;28;20027;-41
2021/06/24 04:49:07;;;;;;;1.23;0.50;;;22.20;59.50;;;;;;4992350;28;20034;-38
2021/06/24 04:51:33;;;;;;;0.80;0.60;;;22.10;59.20;;;;;;4991552;28;20121;-39
2021/06/24 04:53:58;;;;;;;0.65;0.60;;;22.20;59.20;;;;;;4982192;28;20572;-39
2021/06/24 04:56:24;;;;;;;1.70;0.55;;;22.20;59.00;;;;;;4992128;28;20030;-38
2021/06/24 04:58:49;;;;;;;0.77;0.50;;;22.20;59.60;;;;;;4993622;28;20505;-37
2021/06/24 05:01:15;;;;;;;0.60;0.57;;;22.20;58.80;;;;;;4992513;28;20408;-39
2021/06/24 05:03:41;;;;;;;0.90;0.43;;;22.10;59.10;;;;;;4990846;28;20044;-39
2021/06/24 05:06:09;;;;;;;0.70;0.70;;;22.10;60.40;;;;;;4989990;28;20404;-39
2021/06/24 05:08:36;;;;;;;0.70;0.50;;;22.00;61.60;;;;;;4989201;28;20051;-39
2021/06/24 05:11:02;;;;;;;0.80;0.60;;;22.00;62.40;;;;;;4993497;28;20019;-38
2021/06/24 05:13:28;;;;;;;0.70;0.60;;;22.00;62.60;;;;;;4993638;28;20038;-39
2021/06/24 05:15:54;;;;;;;0.50;0.50;;;22.00;63.10;;;;;;4977035;28;20037;-38
2021/06/24 05:18:20;;;;;;;0.60;0.60;;;22.00;62.80;;;;;;4978846;28;20030;-38
2021/06/24 05:20:46;;;;;;;1.63;0.85;;;22.00;63.70;;;;;;4992608;28;20089;-39
2021/06/24 05:23:14;;;;;;;0.93;0.60;;;22.00;62.80;;;;;;4990669;28;20065;-38
2021/06/24 05:25:41;;;;;;;0.60;0.50;;;22.00;62.10;;;;;;4979508;28;20065;-39
2021/06/24 05:28:07;;;;;;;0.73;0.50;;;22.10;61.10;;;;;;4987105;28;20041;-39
2021/06/24 05:30:33;;;;;;;0.75;0.60;;;22.10;61.40;;;;;;4989099;28;20026;-38
2021/06/24 05:32:59;;;;;;;0.85;0.57;;;22.10;61.90;;;;;;4991159;28;20448;-39
2021/06/24 05:35:25;;;;;;;0.80;0.65;;;22.00;61.60;;;;;;5009320;28;20032;-39
2021/06/24 05:37:51;;;;;;;0.65;0.43;;;22.10;61.30;;;;;;4992223;28;20504;-39
2021/06/24 05:40:17;;;;;;;0.43;0.40;;;22.00;61.90;;;;;;4991736;28;20092;-38
2021/06/24 05:42:43;;;;;;;0.90;0.60;;;21.90;61.50;;;;;;4991087;28;20444;-39
2021/06/24 05:45:10;;;;;;;1.02;0.50;;;21.90;61.70;;;;;;4989014;28;20121;-38
2021/06/24 05:47:39;;;;;;;0.93;0.60;;;21.90;62.10;;;;;;4969760;28;20136;-39
2021/06/24 05:50:06;;;;;;;0.70;0.45;;;22.00;61.80;;;;;;4991696;28;20386;-39
2021/06/24 05:52:35;;;;;;;0.73;0.50;;;22.10;61.60;;;;;;4993353;28;20035;-37
2021/06/24 05:55:01;;;;;;;0.80;0.50;;;22.20;61.10;;;;;;4972594;28;20038;-39
2021/06/24 05:57:29;;;;;;;0.70;0.47;;;22.10;60.90;;;;;;4989126;28;20057;-38
2021/06/24 05:59:55;;;;;;;0.93;0.70;;;22.10;60.80;;;;;;4990122;28;20026;-36
2021/06/24 06:02:21;;;;;;;0.52;0.47;;;22.10;61.40;;;;;;4971149;28;20037;-34
2021/06/24 06:04:46;;;;;;;1.13;0.57;;;22.10;60.90;;;;;;4992429;28;20050;-38
2021/06/24 06:07:12;;;;;;;0.50;0.50;;;22.20;61.30;;;;;;4992359;28;20041;-40
2021/06/24 06:09:37;;;;;;;2.25;0.50;;;22.10;60.80;;;;;;4988784;28;20109;-39
2021/06/24 06:12:05;;;;;;;1.65;0.60;;;22.10;61.10;;;;;;4989971;28;20034;-42
2021/06/24 06:14:31;;;;;;;0.70;0.57;;;22.00;60.80;;;;;;5006497;28;20072;-41
2021/06/24 06:16:57;;;;;;;0.47;0.47;;;22.00;60.90;;;;;;4993530;28;20026;-41
2021/06/24 06:19:22;;;;;;;0.98;0.65;;;22.00;61.30;;;;;;4991694;28;20506;-41
2021/06/24 06:21:48;;;;;;;2.25;0.60;;;21.90;61.10;;;;;;4991271;28;20049;-41
2021/06/24 06:24:13;;;;;;;0.90;0.70;;;22.00;60.70;;;;;;4989853;28;20069;-41
2021/06/24 06:26:39;;;;;;;0.82;0.50;;;22.00;60.50;;;;;;4989586;28;20023;-40
2021/06/24 06:29:04;;;;;;;0.88;0.70;;;22.00;60.50;;;;;;4992136;28;20026;-42
2021/06/24 06:31:35;;;;;;;1.05;0.50;;;22.00;60.30;;;;;;4992008;28;20030;-41
2021/06/24 06:34:01;;;;;;;0.63;0.55;;;22.00;60.40;;;;;;4991011;28;20378;-41
2021/06/24 06:36:27;;;;;;;0.98;0.43;;;22.00;60.70;;;;;;4990224;28;20041;-41
2021/06/24 06:38:52;;;;;;;0.60;0.40;;;22.10;60.50;;;;;;4989727;28;20037;-41
2021/06/24 06:41:18;;;;;;;1.48;0.68;;;22.10;60.30;;;;;;4989899;28;20370;-41
2021/06/24 06:43:43;;;;;;;0.98;0.50;;;22.10;60.60;;;;;;4993574;28;20037;-41
2021/06/24 06:46:09;;;;;;;1.02;0.50;;;22.10;60.70;;;;;;4970962;28;20557;-42
2021/06/24 06:48:35;;;;;;;0.68;0.60;;;22.10;60.40;;;;;;5006071;28;20065;-42
2021/06/24 06:51:01;;;;;;;0.93;0.60;;;22.10;60.10;;;;;;4989192;28;20051;-42
2021/06/24 06:53:26;;;;;;;1.15;0.65;;;22.20;60.30;;;;;;4988925;28;20035;-42
2021/06/24 06:55:52;;;;;;;0.75;0.75;;;22.20;60.10;;;;;;4993838;28;20432;-42
2021/06/24 06:58:18;;;;;;;0.70;0.60;;;22.20;60.00;;;;;;4989678;28;20417;-40
2021/06/24 07:00:44;;;;;;;0.90;0.70;;;22.30;60.10;;;;;;4989476;28;20539;-41
2021/06/24 07:03:09;;;;;;;0.68;0.57;;;22.30;60.00;;;;;;4989469;28;20137;-39
2021/06/24 07:05:35;;;;;;;1.00;0.70;;;22.30;59.90;;;;;;4990783;28;20134;-40
2021/06/24 07:08:00;;;;;;;0.68;0.45;;;22.40;59.70;;;;;;4974367;28;20030;-40
2021/06/24 07:10:26;;;;;;;0.70;0.50;;;22.40;59.60;;;;;;4992665;28;20473;-38
2021/06/24 07:12:52;;;;;;;0.75;0.70;;;22.40;59.50;;;;;;4990559;28;20042;-40
2021/06/24 07:15:17;;;;;;;0.85;0.60;;;22.50;59.40;;;;;;4989670;28;20030;-39
2021/06/24 07:17:43;;;;;;;0.52;0.50;;;22.60;59.20;;;;;;4989452;28;20077;-39
2021/06/24 07:20:09;;;;;;;0.65;0.60;;;22.50;59.10;;;;;;4991956;28;20049;-40
2021/06/24 07:22:35;;;;;;;0.85;0.68;;;22.60;58.90;;;;;;4991593;28;20049;-39
2021/06/24 07:25:00;;;;;;;0.70;0.50;;;22.60;58.70;;;;;;4990642;28;20026;-39
2021/06/24 07:27:26;;;;;;;0.98;0.63;;;22.70;58.70;;;;;;4990217;28;20115;-39
2021/06/24 07:29:52;;;;;;;0.63;0.63;;;22.70;58.70;;;;;;4989401;28;20030;-40
2021/06/24 07:32:18;;;;;;;0.98;0.88;;;22.70;58.70;;;;;;4990225;28;20559;-39
2021/06/24 07:34:44;;;;;;;1.50;0.80;;;22.70;58.80;;;;;;5007148;28;20093;-39
2021/06/24 07:37:10;;;;;;;1.15;0.60;;;22.80;58.70;;;;;;4989181;28;20030;-38
2021/06/24 07:39:35;;;;;;;0.82;0.77;;;22.80;58.70;;;;;;4989094;28;20026;-39
2021/06/24 07:42:01;;;;;;;0.80;0.80;;;22.80;58.70;;;;;;4988624;28;20022;-40
2021/06/24 07:44:26;;;;;;;1.00;0.90;;;22.90;58.70;;;;;;4987828;28;20108;-39
2021/06/24 07:46:52;;;;;;;1.10;1.00;;;22.90;59.10;;;;;;4993338;28;20495;-40
2021/06/24 07:49:18;;;;;;;1.02;0.95;;;23.00;58.40;;;;;;4988737;28;20038;-39
2021/06/24 07:51:43;;;;;;;1.40;1.20;;;23.00;58.40;;;;;;4988559;28;20549;-39
2021/06/24 07:54:09;;;;;;;1.02;0.93;;;23.10;58.30;;;;;;4989919;28;20026;-40
2021/06/24 07:56:34;;;;;;;1.08;1.08;;;23.00;58.50;;;;;;4988755;28;20033;-40
2021/06/24 07:59:00;;;;;;;1.15;1.10;;;22.90;58.70;;;;;;4991719;28;20033;-39
2021/06/24 08:01:25;;;;;;;1.08;1.00;;;23.00;59.40;;;;;;4990400;28;20400;-39
2021/06/24 08:03:52;;;;;;;1.40;1.20;;;23.00;58.60;;;;;;4988111;28;20030;-40
2021/06/24 08:06:18;;;;;;;1.35;1.25;;;23.00;58.70;;;;;;4987731;28;20038;-40
2021/06/24 08:08:43;;;;;;;2.38;1.35;;;22.90;58.80;;;;;;4989638;28;20041;-40
2021/06/24 08:11:09;;;;;;;1.38;1.33;;;22.90;59.00;;;;;;4989938;28;20066;-39
2021/06/24 08:13:34;;;;;;;1.65;1.52;;;22.90;58.90;;;;;;4992779;28;20480;-40
2021/06/24 08:16:00;;;;;;;1.45;1.38;;;23.00;58.80;;;;;;4988197;28;20105;-39
2021/06/24 08:18:26;;;;;;;1.52;1.42;;;23.00;58.80;;;;;;4988927;28;20370;-38
2021/06/24 08:20:51;;;;;;;1.48;1.15;;;23.10;58.60;;;;;;4988538;28;20031;-39
2021/06/24 08:23:17;;;;;;;1.45;1.35;;;23.10;58.40;;;;;;4989459;28;20043;-41
2021/06/24 08:25:43;;;;;;;1.73;1.63;;;23.10;58.60;;;;;;4992572;28;20065;-39
2021/06/24 08:28:09;;;;;;;1.63;1.30;;;23.10;58.70;;;;;;4988165;28;20032;-40
2021/06/24 08:30:37;;;;;;;2.95;1.40;;;23.10;58.80;;;;;;4987264;28;20030;-41
2021/06/24 08:33:03;;;;;;;1.80;1.70;;;23.00;58.80;;;;;;4986382;28;20034;-43
2021/06/24 08:35:29;;;;;;;1.92;1.83;;;23.00;58.90;;;;;;5004304;28;20082;-41
2021/06/24 08:37:54;;;;;;;8.45;1.92;;;23.00;59.30;;;;;;4989848;28;20030;-44
2021/06/24 08:40:20;;;;;;;2.22;1.60;;;23.00;59.30;;;;;;5010100;28;20065;-45
2021/06/24 08:42:46;;;;;;;1.75;1.65;;;23.10;59.70;;;;;;4989024;28;20428;-37
2021/06/24 08:45:12;;;;;;;2.10;1.90;;;23.10;59.80;;;;;;4992067;28;20030;-38
2021/06/24 08:47:38;;;;;;;2.15;1.85;;;23.20;59.00;;;;;;4990681;28;20037;-38
2021/06/24 08:50:05;;;;;;;1.90;1.75;;;23.20;58.80;;;;;;4983527;28;20038;-38
2021/06/24 08:52:30;;;;;;;1.65;1.55;;;23.30;58.90;;;;;;4990389;28;20038;-38
2021/06/24 08:54:56;;;;;;;2.22;1.70;;;23.30;58.80;;;;;;4988318;28;20105;-38
2021/06/24 08:57:21;;;;;;;2.90;1.60;;;23.30;59.00;;;;;;4989208;28;20033;-38
2021/06/24 08:59:47;;;;;;;2.00;1.90;;;23.40;59.00;;;;;;4989099;28;20431;-38
2021/06/24 09:02:14;;;;;;;2.10;2.00;;;23.30;59.40;;;;;;4987950;28;20030;-37
2021/06/24 09:04:45;;;;;;;2.55;1.83;;;23.30;59.60;;;;;;4991162;28;20448;-37
2021/06/24 09:07:12;;;;;;;5.82;2.00;;;23.30;59.50;;;;;;4987726;28;20033;-37
2021/06/24 09:09:40;;;;;;;1.92;1.83;;;23.40;59.30;;;;;;4987166;28;20027;-39
2021/06/24 09:12:06;;;;;;;2.13;1.95;;;23.40;59.40;;;;;;4987762;28;20050;-38
2021/06/24 09:14:45;;;;;;;2.20;2.00;;;23.40;59.50;;;;;;4986723;28;20031;-40
2021/06/24 09:17:12;;;;;;;2.88;2.08;;;23.50;59.20;;;;;;4988972;28;20038;-39
2021/06/24 09:19:42;;;;;;;2.10;1.90;;;23.50;59.20;;;;;;4991622;28;20026;-38
2021/06/24 09:22:12;;;;;;;3.22;2.15;;;23.40;59.50;;;;;;4987311;28;20128;-38
2021/06/24 09:24:48;;;;;;;2.10;2.00;;;23.40;59.60;;;;;;4991366;28;20034;-38
2021/06/24 09:27:17;;;;;;;1.95;1.85;;;23.40;59.40;;;;;;4991284;28;20038;-38
2021/06/24 09:29:47;;;;;;;2.45;2.30;;;23.40;59.30;;;;;;4991919;28;20034;-38
2021/06/24 09:32:13;;;;;;;2.15;2.05;;;23.50;59.10;;;;;;4992265;28;20026;-39
2021/06/24 09:34:53;;;;;;;2.90;2.67;;;23.60;58.60;;;;;;4969961;28;20511;-38
2021/06/24 09:37:18;;;;;;;3.13;2.80;;;23.80;58.00;;;;;;4990676;28;20033;-38
2021/06/24 09:39:47;;;;;;;2.78;2.50;;;23.90;57.90;;;;;;4992161;28;20034;-37
2021/06/24 09:42:13;;;;;;;3.20;3.00;;;23.80;58.10;;;;;;4979954;28;20030;-39
2021/06/24 09:44:43;;;;;;;2.97;2.78;;;23.80;58.20;;;;;;4989584;28;20509;-38
2021/06/24 09:47:17;;;;;;;3.38;3.17;;;23.70;58.20;;;;;;4994105;28;20018;-37
2021/06/24 09:49:43;;;;;;;;;;;23.90;58.00;;;;;;4994221;28;20030;-38
2021/06/24 09:52:08;;;;;;;3.45;3.20;;;24.00;58.10;;;;;;4993300;28;20395;-38
2021/06/24 09:54:43;;;;;;;3.05;2.85;;;23.90;59.80;;;;;;4979005;28;20517;-38
2021/06/24 09:57:09;;;;;;;3.10;2.80;;;23.80;60.10;;;;;;4985732;28;20049;-38
2021/06/24 09:59:40;;;;;;;3.47;3.10;;;23.80;60.30;;;;;;4966924;28;20026;-39
2021/06/24 10:02:11;;;;;;;2.97;2.78;;;23.90;60.10;;;;;;4992454;28;20120;-37
2021/06/24 10:04:41;;;;;;;3.22;3.08;;;23.90;60.10;;;;;;4979940;28;20089;-38
2021/06/24 10:07:09;;;;;;;3.45;3.03;;;24.00;59.80;;;;;;4991932;28;20026;-37
2021/06/24 10:09:37;;;;;;;3.05;2.85;;;24.00;60.00;;;;;;4992526;28;20030;-38
2021/06/24 10:12:03;;;;;;;4.00;2.80;;;24.20;59.60;;;;;;4992410;28;20117;-39
2021/06/24 10:14:29;;;;;;;3.08;2.88;;;24.30;59.30;;;;;;4990337;28;20103;-38
2021/06/24 10:16:59;;;;;;;3.05;2.85;;;24.20;59.60;;;;;;4993937;28;20527;-38
2021/06/24 10:19:28;;;;;;;3.20;3.03;;;24.20;59.60;;;;;;4994081;28;20041;-38
2021/06/24 10:22:00;;;;;;;3.00;2.80;;;24.10;60.90;;;;;;4994532;28;20030;-38
2021/06/24 10:24:34;;;;;;;3.45;2.92;;;24.20;59.70;;;;;;4981629;28;20121;-39
2021/06/24 10:27:00;;;;;;;;;;;24.20;59.70;;;;;;4985698;28;20022;-38
2021/06/24 10:29:37;;;;;;;3.88;2.85;;;24.10;59.80;;;;;;4991297;28;20400;-37
2021/06/24 10:32:03;;;;;;;3.50;2.90;;;24.20;59.50;;;;;;4976724;28;20113;-38
2021/06/24 10:34:45;;;;;;;3.40;3.10;;;24.20;59.40;;;;;;4993587;28;20180;-38
2021/06/24 10:37:15;;;;;;;3.65;3.30;;;24.30;59.80;;;;;;4989216;28;20034;-37
2021/06/24 10:39:41;;;;;;;3.67;3.40;;;24.30;58.90;;;;;;4988705;28;20168;-39
2021/06/24 10:42:09;;;;;;;3.25;3.05;;;24.30;58.80;;;;;;4975633;28;20117;-39
2021/06/24 10:44:50;;;;;;;3.35;3.15;;;24.40;58.80;;;;;;4988860;28;20524;-38
2021/06/24 10:47:35;;;;;;;3.78;3.17;;;24.40;58.70;;;;;;4989834;28;20126;-38
2021/06/24 10:50:48;;;;;;;3.42;2.88;;;24.30;58.50;;;;;;5006896;28;20143;-39
2021/06/24 10:53:13;;;;;;;4.15;3.08;;;24.30;58.80;;;;;;4989823;28;20038;-38
2021/06/24 10:55:42;;;;;;;3.60;3.38;;;24.30;58.70;;;;;;4992265;28;20045;-38
2021/06/24 10:58:11;;;;;;;4.88;3.00;;;24.20;58.60;;;;;;4990065;28;20511;-39
2021/06/24 11:00:43;;;;;;;3.28;3.08;;;24.20;58.60;;;;;;4990598;28;20048;-37
2021/06/24 11:03:11;;;;;;;3.35;3.15;;;24.30;58.50;;;;;;4990512;28;20532;-37
2021/06/24 11:05:37;;;;;;;3.95;3.50;;;24.30;58.40;;;;;;4990339;28;20014;-38
2021/06/24 11:08:13;;;;;;;3.47;3.28;;;24.30;58.30;;;;;;4993154;28;20121;-38
2021/06/24 11:10:51;;;;;;;3.45;3.25;;;24.40;58.30;;;;;;4994370;28;20546;-37
2021/06/24 11:13:44;;;;;;;3.28;3.08;;;24.40;58.30;;;;;;4989249;28;20493;-37
2021/06/24 11:16:09;;;;;;;4.03;3.50;;;24.30;58.10;;;;;;4991273;28;20026;-38
2021/06/24 11:18:35;;;;;;;3.08;2.88;;;24.30;58.50;;;;;;4990091;28;20036;-38
2021/06/24 11:21:04;;;;;;;3.10;3.00;;;24.10;58.70;;;;;;4990703;28;20026;-37
2021/06/24 11:23:30;;;;;;;3.78;2.65;;;24.10;58.70;;;;;;4992330;28;20117;-38
2021/06/24 11:26:04;;;;;;;2.95;2.75;;;24.10;58.70;;;;;;4991578;28;20018;-37
2021/06/24 11:29:01;;;;;;;3.20;3.00;;;24.00;58.80;;;;;;4980200;28;20041;-37
2021/06/24 11:37:00;;;;;;;2.92;2.80;;;24.20;58.60;;;;;;4991359;28;20034;-37
2021/06/24 11:39:38;;;;;;;3.13;2.93;;;24.30;58.40;;;;;;4989950;28;20038;-38
2021/06/24 11:42:05;;;;;;;2.80;2.70;;;24.30;58.20;;;;;;4990268;28;20053;-38
2021/06/24 11:44:39;;;;;;;5.10;3.13;;;24.40;58.00;;;;;;4988059;28;21039;-37
2021/06/24 11:47:12;;;;;;;3.25;3.05;;;24.50;58.00;;;;;;4989829;28;20386;-38
2021/06/24 12:03:23;;;;;;;3.45;3.20;;;24.30;58.40;;;;;;4989133;28;20531;-38
2021/06/24 12:05:53;;;;;;;3.58;3.38;;;24.30;58.30;;;;;;4988808;28;20027;-36
2021/06/24 12:08:22;;;;;;;3.40;3.30;;;24.30;58.30;;;;;;4987718;28;20501;-38
2021/06/24 12:10:49;;;;;;;3.45;3.35;;;24.40;58.10;;;;;;4991633;28;20465;-37
2021/06/24 12:13:34;;;;;;;3.42;3.22;;;24.50;58.00;;;;;;4972392;28;20488;-37
2021/06/24 12:16:00;;;;;;;3.28;3.15;;;24.40;58.10;;;;;;4985247;28;20034;-37
2021/06/24 12:18:42;;;;;;;3.20;3.10;;;24.40;57.90;;;;;;4988205;28;20038;-38
2021/06/24 12:21:12;;;;;;;3.25;3.05;;;24.50;57.90;;;;;;4976773;28;20038;-38
2021/06/24 12:23:45;;;;;;;3.35;3.25;;;24.50;57.90;;;;;;5011817;28;20528;-37
2021/06/24 12:26:12;;;;;;;3.13;2.83;;;24.50;57.80;;;;;;4989040;28;20123;-37
2021/06/24 12:28:38;;;;;;;3.22;3.05;;;24.40;58.00;;;;;;4991969;28;20412;-37
2021/06/24 12:31:06;;;;;;;3.45;3.25;;;24.40;58.10;;;;;;5009124;28;20026;-37
2021/06/24 12:33:32;;;;;;;3.53;3.33;;;24.30;58.10;;;;;;4987637;28;20160;-39
2021/06/24 12:35:58;;;;;;;3.38;2.95;;;24.50;58.00;;;;;;4989247;28;20117;-37
2021/06/24 12:38:25;;;;;;;2.90;2.80;;;24.50;57.70;;;;;;4987898;28;20066;-38
2021/06/24 12:40:57;;;;;;;3.83;3.63;;;24.60;57.70;;;;;;4993316;28;20031;-38
2021/06/24 12:43:30;;;;;;;3.70;3.50;;;24.60;57.40;;;;;;4965693;28;20405;-38
2021/06/24 12:45:57;;;;;;;3.50;3.37;;;24.60;57.60;;;;;;4987429;28;20133;-38
2021/06/24 12:48:26;;;;;;;3.70;3.60;;;24.60;57.50;;;;;;4989112;28;20034;-38
2021/06/24 12:50:51;;;;;;;3.58;3.38;;;24.60;57.60;;;;;;4990745;28;20125;-39
2021/06/24 12:53:30;;;;;;;3.22;3.13;;;24.60;57.70;;;;;;4990499;28;20019;-38
2021/06/24 12:55:56;;;;;;;3.47;3.28;;;24.60;57.50;;;;;;4991483;28;20039;-38
2021/06/24 12:58:21;;;;;;;3.22;3.10;;;24.60;57.50;;;;;;4991386;28;20037;-38
2021/06/24 13:00:53;;;;;;;3.88;3.67;;;24.70;57.30;;;;;;4990098;28;20030;-36
2021/06/24 13:03:37;;;;;;;3.42;3.10;;;24.70;57.40;;;;;;4989273;28;20038;-38
2021/06/24 13:06:09;;;;;;;3.60;3.40;;;24.70;57.40;;;;;;4989919;28;20106;-38
2021/06/24 13:08:35;;;;;;;3.33;3.22;;;24.70;57.20;;;;;;4989977;28;20499;-38